sensor_id;sensor_type;location;lat;lon;timestamp;P1;durP1;ratioP1;P2;durP2;ratioP2
24663;SDS011;12791;50.992;13.788;2023-05-07T00:01:32;20.70;;;17.33;;
24663;SDS011;12791;50.992;13.788;2023-05-07T00:04:00;22.08;;;18.77;;
24663;SDS011;12791;50.992;13.788;2023-05-07T00:06:27;20.48;;;17.27;;
24663;SDS011;12791;50.992;13.788;2023-05-07T00:08:54;22.30;;;18.70;;
24663;SDS011;12791;50.992;13.788;2023-05-07T00:11:20;23.42;;;19.00;;
24663;SDS011;12791;50.992;13.788;2023-05-07T00:13:47;22.88;;;19.20;;
24663;SDS011;12791;50.992;13.788;2023-05-07T00:16:14;22.27;;;18.55;;
24663;SDS011;12791;50.992;13.788;2023-05-07T00:18:41;24.45;;;20.85;;
24663;SDS011;12791;50.992;13.788;2023-05-07T00:21:09;24.20;;;19.98;;
24663;SDS011;12791;50.992;13.788;2023-05-07T00:23:35;21.27;;;18.48;;
24663;SDS011;12791;50.992;13.788;2023-05-07T00:26:02;18.92;;;16.42;;
24663;SDS011;12791;50.992;13.788;2023-05-07T00:28:29;19.85;;;16.83;;
24663;SDS011;12791;50.992;13.788;2023-05-07T00:30:55;17.33;;;15.50;;
24663;SDS011;12791;50.992;13.788;2023-05-07T00:33:22;23.30;;;16.92;;
24663;SDS011;12791;50.992;13.788;2023-05-07T00:35:48;18.58;;;15.13;;
24663;SDS011;12791;50.992;13.788;2023-05-07T00:38:16;21.08;;;17.75;;
24663;SDS011;12791;50.992;13.788;2023-05-07T00:40:43;18.27;;;15.75;;
24663;SDS011;12791;50.992;13.788;2023-05-07T00:43:10;18.08;;;15.95;;
24663;SDS011;12791;50.992;13.788;2023-05-07T00:45:37;19.58;;;17.40;;
24663;SDS011;12791;50.992;13.788;2023-05-07T00:48:04;20.90;;;17.58;;
24663;SDS011;12791;50.992;13.788;2023-05-07T00:50:31;22.73;;;18.40;;
24663;SDS011;12791;50.992;13.788;2023-05-07T00:52:59;21.55;;;18.42;;
24663;SDS011;12791;50.992;13.788;2023-05-07T00:55:27;20.23;;;17.30;;
24663;SDS011;12791;50.992;13.788;2023-05-07T00:57:55;22.95;;;18.58;;
24663;SDS011;12791;50.992;13.788;2023-05-07T01:00:22;24.60;;;19.95;;
24663;SDS011;12791;50.992;13.788;2023-05-07T01:02:50;24.10;;;19.58;;
24663;SDS011;12791;50.992;13.788;2023-05-07T01:05:17;26.67;;;19.67;;
24663;SDS011;12791;50.992;13.788;2023-05-07T01:07:45;27.85;;;21.02;;
24663;SDS011;12791;50.992;13.788;2023-05-07T01:10:12;28.33;;;21.38;;
24663;SDS011;12791;50.992;13.788;2023-05-07T01:12:41;29.27;;;22.67;;
24663;SDS011;12791;50.992;13.788;2023-05-07T01:15:09;27.00;;;20.83;;
24663;SDS011;12791;50.992;13.788;2023-05-07T01:17:36;28.90;;;21.08;;
24663;SDS011;12791;50.992;13.788;2023-05-07T01:20:04;30.00;;;22.05;;
24663;SDS011;12791;50.992;13.788;2023-05-07T01:22:34;31.02;;;23.17;;
24663;SDS011;12791;50.992;13.788;2023-05-07T01:25:02;31.27;;;23.08;;
24663;SDS011;12791;50.992;13.788;2023-05-07T01:27:29;33.05;;;23.83;;
24663;SDS011;12791;50.992;13.788;2023-05-07T01:29:58;30.67;;;23.50;;
24663;SDS011;12791;50.992;13.788;2023-05-07T01:32:27;30.17;;;22.48;;
24663;SDS011;12791;50.992;13.788;2023-05-07T01:34:58;32.80;;;22.27;;
24663;SDS011;12791;50.992;13.788;2023-05-07T01:37:27;29.17;;;22.48;;
24663;SDS011;12791;50.992;13.788;2023-05-07T01:39:56;30.58;;;21.60;;
24663;SDS011;12791;50.992;13.788;2023-05-07T01:42:23;28.63;;;20.50;;
24663;SDS011;12791;50.992;13.788;2023-05-07T01:44:50;31.70;;;23.38;;
24663;SDS011;12791;50.992;13.788;2023-05-07T01:47:17;27.13;;;22.35;;
24663;SDS011;12791;50.992;13.788;2023-05-07T01:49:44;29.75;;;22.30;;
24663;SDS011;12791;50.992;13.788;2023-05-07T01:52:11;31.77;;;23.25;;
24663;SDS011;12791;50.992;13.788;2023-05-07T01:54:37;28.92;;;22.40;;
24663;SDS011;12791;50.992;13.788;2023-05-07T01:57:05;25.17;;;20.80;;
24663;SDS011;12791;50.992;13.788;2023-05-07T01:59:32;25.08;;;21.30;;
24663;SDS011;12791;50.992;13.788;2023-05-07T02:01:59;25.77;;;20.17;;
24663;SDS011;12791;50.992;13.788;2023-05-07T02:04:25;26.20;;;21.20;;
24663;SDS011;12791;50.992;13.788;2023-05-07T02:06:52;23.50;;;21.00;;
24663;SDS011;12791;50.992;13.788;2023-05-07T02:09:18;23.65;;;20.23;;
24663;SDS011;12791;50.992;13.788;2023-05-07T02:11:45;22.83;;;19.92;;
24663;SDS011;12791;50.992;13.788;2023-05-07T02:14:13;24.88;;;20.10;;
24663;SDS011;12791;50.992;13.788;2023-05-07T02:16:40;24.70;;;20.70;;
24663;SDS011;12791;50.992;13.788;2023-05-07T02:19:07;25.27;;;21.20;;
24663;SDS011;12791;50.992;13.788;2023-05-07T02:21:33;25.27;;;20.75;;
24663;SDS011;12791;50.992;13.788;2023-05-07T02:24:00;25.45;;;21.38;;
24663;SDS011;12791;50.992;13.788;2023-05-07T02:26:26;24.30;;;20.65;;
24663;SDS011;12791;50.992;13.788;2023-05-07T02:28:53;22.85;;;19.77;;
24663;SDS011;12791;50.992;13.788;2023-05-07T02:31:21;24.88;;;20.35;;
24663;SDS011;12791;50.992;13.788;2023-05-07T02:33:48;24.25;;;21.10;;
24663;SDS011;12791;50.992;13.788;2023-05-07T02:36:14;26.63;;;21.77;;
24663;SDS011;12791;50.992;13.788;2023-05-07T02:38:41;23.98;;;19.48;;
24663;SDS011;12791;50.992;13.788;2023-05-07T02:41:07;23.85;;;20.75;;
24663;SDS011;12791;50.992;13.788;2023-05-07T02:43:34;24.75;;;21.73;;
24663;SDS011;12791;50.992;13.788;2023-05-07T02:46:01;22.80;;;19.73;;
24663;SDS011;12791;50.992;13.788;2023-05-07T02:48:30;27.27;;;21.40;;
24663;SDS011;12791;50.992;13.788;2023-05-07T02:50:56;24.70;;;20.63;;
24663;SDS011;12791;50.992;13.788;2023-05-07T02:53:23;23.80;;;20.63;;
24663;SDS011;12791;50.992;13.788;2023-05-07T02:55:51;25.42;;;20.77;;
24663;SDS011;12791;50.992;13.788;2023-05-07T02:58:17;26.70;;;20.02;;
24663;SDS011;12791;50.992;13.788;2023-05-07T03:00:44;24.15;;;20.42;;
24663;SDS011;12791;50.992;13.788;2023-05-07T03:03:11;22.00;;;19.35;;
24663;SDS011;12791;50.992;13.788;2023-05-07T03:05:39;25.38;;;21.73;;
24663;SDS011;12791;50.992;13.788;2023-05-07T03:08:06;24.40;;;20.25;;
24663;SDS011;12791;50.992;13.788;2023-05-07T03:10:34;25.00;;;20.50;;
24663;SDS011;12791;50.992;13.788;2023-05-07T03:13:01;22.30;;;19.08;;
24663;SDS011;12791;50.992;13.788;2023-05-07T03:15:28;21.77;;;17.30;;
24663;SDS011;12791;50.992;13.788;2023-05-07T03:17:55;18.45;;;16.48;;
24663;SDS011;12791;50.992;13.788;2023-05-07T03:20:22;15.27;;;13.52;;
24663;SDS011;12791;50.992;13.788;2023-05-07T03:22:50;16.50;;;13.90;;
24663;SDS011;12791;50.992;13.788;2023-05-07T03:25:17;15.73;;;13.30;;
24663;SDS011;12791;50.992;13.788;2023-05-07T03:27:43;16.40;;;13.65;;
24663;SDS011;12791;50.992;13.788;2023-05-07T03:30:10;15.77;;;12.75;;
24663;SDS011;12791;50.992;13.788;2023-05-07T03:32:38;13.88;;;12.13;;
24663;SDS011;12791;50.992;13.788;2023-05-07T03:35:05;15.30;;;12.52;;
24663;SDS011;12791;50.992;13.788;2023-05-07T03:37:32;15.00;;;12.15;;
24663;SDS011;12791;50.992;13.788;2023-05-07T03:40:00;14.68;;;11.77;;
24663;SDS011;12791;50.992;13.788;2023-05-07T03:42:27;12.82;;;11.25;;
24663;SDS011;12791;50.992;13.788;2023-05-07T03:44:55;11.95;;;10.65;;
24663;SDS011;12791;50.992;13.788;2023-05-07T03:47:21;12.13;;;10.18;;
24663;SDS011;12791;50.992;13.788;2023-05-07T03:49:48;10.98;;;9.85;;
24663;SDS011;12791;50.992;13.788;2023-05-07T03:52:15;17.52;;;14.70;;
24663;SDS011;12791;50.992;13.788;2023-05-07T03:54:47;15.73;;;12.32;;
24663;SDS011;12791;50.992;13.788;2023-05-07T03:57:15;13.02;;;11.05;;
24663;SDS011;12791;50.992;13.788;2023-05-07T03:59:42;13.25;;;11.85;;
24663;SDS011;12791;50.992;13.788;2023-05-07T04:02:08;16.75;;;13.20;;
24663;SDS011;12791;50.992;13.788;2023-05-07T04:04:35;18.08;;;13.48;;
24663;SDS011;12791;50.992;13.788;2023-05-07T04:07:01;16.40;;;13.57;;
24663;SDS011;12791;50.992;13.788;2023-05-07T04:09:29;17.13;;;13.57;;
24663;SDS011;12791;50.992;13.788;2023-05-07T04:11:56;17.52;;;13.25;;
24663;SDS011;12791;50.992;13.788;2023-05-07T04:14:24;15.13;;;13.05;;
24663;SDS011;12791;50.992;13.788;2023-05-07T04:16:50;14.63;;;12.02;;
24663;SDS011;12791;50.992;13.788;2023-05-07T04:19:17;15.73;;;12.93;;
24663;SDS011;12791;50.992;13.788;2023-05-07T04:21:43;16.58;;;12.38;;
24663;SDS011;12791;50.992;13.788;2023-05-07T04:24:10;14.35;;;12.60;;
24663;SDS011;12791;50.992;13.788;2023-05-07T04:26:37;15.13;;;12.23;;
24663;SDS011;12791;50.992;13.788;2023-05-07T04:29:03;15.18;;;12.65;;
24663;SDS011;12791;50.992;13.788;2023-05-07T04:31:32;17.98;;;14.10;;
24663;SDS011;12791;50.992;13.788;2023-05-07T04:33:58;17.88;;;14.40;;
24663;SDS011;12791;50.992;13.788;2023-05-07T04:36:25;16.83;;;13.68;;
24663;SDS011;12791;50.992;13.788;2023-05-07T04:38:54;15.52;;;13.10;;
24663;SDS011;12791;50.992;13.788;2023-05-07T04:41:20;15.20;;;12.63;;
24663;SDS011;12791;50.992;13.788;2023-05-07T04:43:47;18.52;;;14.45;;
24663;SDS011;12791;50.992;13.788;2023-05-07T04:46:13;19.80;;;15.52;;
24663;SDS011;12791;50.992;13.788;2023-05-07T04:48:42;18.75;;;15.75;;
24663;SDS011;12791;50.992;13.788;2023-05-07T04:51:08;18.40;;;14.60;;
24663;SDS011;12791;50.992;13.788;2023-05-07T04:53:35;21.05;;;16.23;;
24663;SDS011;12791;50.992;13.788;2023-05-07T04:56:02;20.15;;;16.00;;
24663;SDS011;12791;50.992;13.788;2023-05-07T04:58:28;20.23;;;15.43;;
24663;SDS011;12791;50.992;13.788;2023-05-07T05:00:56;19.30;;;15.10;;
24663;SDS011;12791;50.992;13.788;2023-05-07T05:03:23;18.00;;;14.73;;
24663;SDS011;12791;50.992;13.788;2023-05-07T05:05:51;19.30;;;14.50;;
24663;SDS011;12791;50.992;13.788;2023-05-07T05:08:18;17.75;;;13.82;;
24663;SDS011;12791;50.992;13.788;2023-05-07T05:10:45;20.05;;;14.98;;
24663;SDS011;12791;50.992;13.788;2023-05-07T05:13:13;20.20;;;15.07;;
24663;SDS011;12791;50.992;13.788;2023-05-07T05:15:40;19.20;;;14.98;;
24663;SDS011;12791;50.992;13.788;2023-05-07T05:18:06;18.48;;;14.43;;
24663;SDS011;12791;50.992;13.788;2023-05-07T05:20:33;21.05;;;13.98;;
24663;SDS011;12791;50.992;13.788;2023-05-07T05:23:01;17.83;;;14.00;;
24663;SDS011;12791;50.992;13.788;2023-05-07T05:25:28;17.20;;;13.55;;
24663;SDS011;12791;50.992;13.788;2023-05-07T05:27:54;16.13;;;12.63;;
24663;SDS011;12791;50.992;13.788;2023-05-07T05:30:21;16.38;;;13.30;;
24663;SDS011;12791;50.992;13.788;2023-05-07T05:32:48;16.55;;;14.23;;
24663;SDS011;12791;50.992;13.788;2023-05-07T05:35:14;17.20;;;13.57;;
24663;SDS011;12791;50.992;13.788;2023-05-07T05:37:41;18.60;;;13.90;;
24663;SDS011;12791;50.992;13.788;2023-05-07T05:40:10;20.55;;;15.80;;
24663;SDS011;12791;50.992;13.788;2023-05-07T05:42:37;21.40;;;16.48;;
24663;SDS011;12791;50.992;13.788;2023-05-07T05:45:04;19.02;;;15.98;;
24663;SDS011;12791;50.992;13.788;2023-05-07T05:47:31;21.63;;;17.20;;
24663;SDS011;12791;50.992;13.788;2023-05-07T05:49:58;21.05;;;16.63;;
24663;SDS011;12791;50.992;13.788;2023-05-07T05:52:24;22.75;;;17.58;;
24663;SDS011;12791;50.992;13.788;2023-05-07T05:54:51;21.15;;;15.95;;
24663;SDS011;12791;50.992;13.788;2023-05-07T05:57:20;21.02;;;15.93;;
24663;SDS011;12791;50.992;13.788;2023-05-07T05:59:47;20.48;;;16.08;;
24663;SDS011;12791;50.992;13.788;2023-05-07T06:02:13;21.15;;;15.52;;
24663;SDS011;12791;50.992;13.788;2023-05-07T06:04:40;20.25;;;15.60;;
24663;SDS011;12791;50.992;13.788;2023-05-07T06:07:07;23.40;;;15.68;;
24663;SDS011;12791;50.992;13.788;2023-05-07T06:09:34;21.50;;;16.42;;
24663;SDS011;12791;50.992;13.788;2023-05-07T06:12:00;20.08;;;15.52;;
24663;SDS011;12791;50.992;13.788;2023-05-07T06:14:28;20.90;;;15.70;;
24663;SDS011;12791;50.992;13.788;2023-05-07T06:16:55;19.33;;;14.48;;
24663;SDS011;12791;50.992;13.788;2023-05-07T06:19:22;19.95;;;15.35;;
24663;SDS011;12791;50.992;13.788;2023-05-07T06:21:49;17.65;;;13.52;;
24663;SDS011;12791;50.992;13.788;2023-05-07T06:24:15;18.05;;;14.00;;
24663;SDS011;12791;50.992;13.788;2023-05-07T06:26:42;18.48;;;14.15;;
24663;SDS011;12791;50.992;13.788;2023-05-07T06:29:09;15.38;;;11.70;;
24663;SDS011;12791;50.992;13.788;2023-05-07T06:31:37;13.35;;;10.40;;
24663;SDS011;12791;50.992;13.788;2023-05-07T06:34:03;12.10;;;9.68;;
24663;SDS011;12791;50.992;13.788;2023-05-07T06:36:30;10.75;;;8.93;;
24663;SDS011;12791;50.992;13.788;2023-05-07T06:38:57;11.57;;;9.40;;
24663;SDS011;12791;50.992;13.788;2023-05-07T06:41:23;9.77;;;8.38;;
24663;SDS011;12791;50.992;13.788;2023-05-07T06:43:50;9.77;;;8.60;;
24663;SDS011;12791;50.992;13.788;2023-05-07T06:46:17;10.75;;;8.75;;
24663;SDS011;12791;50.992;13.788;2023-05-07T06:48:45;10.13;;;8.88;;
24663;SDS011;12791;50.992;13.788;2023-05-07T06:51:11;10.50;;;8.55;;
24663;SDS011;12791;50.992;13.788;2023-05-07T06:53:38;10.52;;;9.25;;
24663;SDS011;12791;50.992;13.788;2023-05-07T06:56:05;12.68;;;8.88;;
24663;SDS011;12791;50.992;13.788;2023-05-07T06:58:32;8.57;;;7.32;;
24663;SDS011;12791;50.992;13.788;2023-05-07T07:00:59;8.52;;;7.32;;
24663;SDS011;12791;50.992;13.788;2023-05-07T07:03:25;9.15;;;7.90;;
24663;SDS011;12791;50.992;13.788;2023-05-07T07:05:53;8.52;;;7.53;;
24663;SDS011;12791;50.992;13.788;2023-05-07T07:08:21;7.75;;;6.93;;
24663;SDS011;12791;50.992;13.788;2023-05-07T07:10:48;8.50;;;7.15;;
24663;SDS011;12791;50.992;13.788;2023-05-07T07:13:14;10.52;;;8.45;;
24663;SDS011;12791;50.992;13.788;2023-05-07T07:15:41;10.77;;;9.35;;
24663;SDS011;12791;50.992;13.788;2023-05-07T07:18:08;11.65;;;10.25;;
24663;SDS011;12791;50.992;13.788;2023-05-07T07:20:35;10.80;;;9.57;;
24663;SDS011;12791;50.992;13.788;2023-05-07T07:23:03;10.90;;;9.18;;
24663;SDS011;12791;50.992;13.788;2023-05-07T07:25:29;11.95;;;9.48;;
24663;SDS011;12791;50.992;13.788;2023-05-07T07:27:56;9.18;;;8.27;;
24663;SDS011;12791;50.992;13.788;2023-05-07T07:30:23;10.25;;;9.15;;
24663;SDS011;12791;50.992;13.788;2023-05-07T07:32:49;9.73;;;8.80;;
24663;SDS011;12791;50.992;13.788;2023-05-07T07:35:17;9.82;;;8.77;;
24663;SDS011;12791;50.992;13.788;2023-05-07T07:37:44;11.70;;;10.05;;
24663;SDS011;12791;50.992;13.788;2023-05-07T07:40:12;9.73;;;8.73;;
24663;SDS011;12791;50.992;13.788;2023-05-07T07:42:39;10.30;;;8.82;;
24663;SDS011;12791;50.992;13.788;2023-05-07T07:45:07;8.80;;;7.90;;
24663;SDS011;12791;50.992;13.788;2023-05-07T07:47:34;8.32;;;7.38;;
24663;SDS011;12791;50.992;13.788;2023-05-07T07:50:00;8.45;;;7.35;;
24663;SDS011;12791;50.992;13.788;2023-05-07T07:52:27;7.72;;;6.93;;
24663;SDS011;12791;50.992;13.788;2023-05-07T07:54:54;7.13;;;6.45;;
24663;SDS011;12791;50.992;13.788;2023-05-07T07:57:22;6.53;;;5.70;;
24663;SDS011;12791;50.992;13.788;2023-05-07T07:59:49;7.00;;;6.30;;
24663;SDS011;12791;50.992;13.788;2023-05-07T08:02:16;6.93;;;6.22;;
24663;SDS011;12791;50.992;13.788;2023-05-07T08:04:43;5.88;;;5.32;;
24663;SDS011;12791;50.992;13.788;2023-05-07T08:07:09;5.63;;;5.13;;
24663;SDS011;12791;50.992;13.788;2023-05-07T08:09:36;5.38;;;4.88;;
24663;SDS011;12791;50.992;13.788;2023-05-07T08:12:04;5.75;;;5.22;;
24663;SDS011;12791;50.992;13.788;2023-05-07T08:14:32;7.03;;;6.32;;
24663;SDS011;12791;50.992;13.788;2023-05-07T08:16:59;5.97;;;5.47;;
24663;SDS011;12791;50.992;13.788;2023-05-07T08:19:26;5.75;;;5.22;;
24663;SDS011;12791;50.992;13.788;2023-05-07T08:21:52;5.05;;;4.65;;
24663;SDS011;12791;50.992;13.788;2023-05-07T08:24:20;6.03;;;5.00;;
24663;SDS011;12791;50.992;13.788;2023-05-07T08:26:46;5.25;;;4.85;;
24663;SDS011;12791;50.992;13.788;2023-05-07T08:29:14;5.05;;;4.63;;
24663;SDS011;12791;50.992;13.788;2023-05-07T08:31:42;5.32;;;4.93;;
24663;SDS011;12791;50.992;13.788;2023-05-07T08:34:09;4.85;;;4.45;;
24663;SDS011;12791;50.992;13.788;2023-05-07T08:36:35;5.40;;;5.00;;
24663;SDS011;12791;50.992;13.788;2023-05-07T08:39:02;5.50;;;5.03;;
24663;SDS011;12791;50.992;13.788;2023-05-07T08:41:29;5.07;;;4.68;;
24663;SDS011;12791;50.992;13.788;2023-05-07T08:43:57;4.60;;;4.30;;
24663;SDS011;12791;50.992;13.788;2023-05-07T08:46:24;5.55;;;5.05;;
24663;SDS011;12791;50.992;13.788;2023-05-07T08:48:53;6.35;;;5.22;;
24663;SDS011;12791;50.992;13.788;2023-05-07T08:51:20;4.65;;;4.35;;
24663;SDS011;12791;50.992;13.788;2023-05-07T08:53:48;6.63;;;5.85;;
24663;SDS011;12791;50.992;13.788;2023-05-07T08:56:16;6.40;;;5.90;;
24663;SDS011;12791;50.992;13.788;2023-05-07T08:58:45;6.03;;;5.53;;
24663;SDS011;12791;50.992;13.788;2023-05-07T09:01:12;5.00;;;4.68;;
24663;SDS011;12791;50.992;13.788;2023-05-07T09:03:40;6.43;;;5.93;;
24663;SDS011;12791;50.992;13.788;2023-05-07T09:06:11;6.82;;;6.22;;
24663;SDS011;12791;50.992;13.788;2023-05-07T09:08:37;6.32;;;5.82;;
24663;SDS011;12791;50.992;13.788;2023-05-07T09:11:04;6.63;;;6.07;;
24663;SDS011;12791;50.992;13.788;2023-05-07T09:13:31;6.95;;;6.35;;
24663;SDS011;12791;50.992;13.788;2023-05-07T09:15:57;7.90;;;6.95;;
24663;SDS011;12791;50.992;13.788;2023-05-07T09:18:25;7.60;;;6.90;;
24663;SDS011;12791;50.992;13.788;2023-05-07T09:20:51;7.55;;;6.85;;
24663;SDS011;12791;50.992;13.788;2023-05-07T09:23:19;8.02;;;7.22;;
24663;SDS011;12791;50.992;13.788;2023-05-07T09:25:46;8.07;;;6.97;;
24663;SDS011;12791;50.992;13.788;2023-05-07T09:28:13;7.43;;;6.72;;
24663;SDS011;12791;50.992;13.788;2023-05-07T09:30:40;7.47;;;6.78;;
24663;SDS011;12791;50.992;13.788;2023-05-07T09:33:06;7.40;;;6.70;;
24663;SDS011;12791;50.992;13.788;2023-05-07T09:35:33;7.75;;;6.75;;
24663;SDS011;12791;50.992;13.788;2023-05-07T09:38:00;7.13;;;6.53;;
24663;SDS011;12791;50.992;13.788;2023-05-07T09:40:29;7.78;;;6.47;;
24663;SDS011;12791;50.992;13.788;2023-05-07T09:43:07;8.18;;;7.38;;
24663;SDS011;12791;50.992;13.788;2023-05-07T09:45:35;8.07;;;7.38;;
24663;SDS011;12791;50.992;13.788;2023-05-07T09:48:02;9.45;;;8.18;;
24663;SDS011;12791;50.992;13.788;2023-05-07T09:50:32;8.65;;;7.82;;
24663;SDS011;12791;50.992;13.788;2023-05-07T09:53:02;7.85;;;7.15;;
24663;SDS011;12791;50.992;13.788;2023-05-07T09:55:31;8.00;;;7.30;;
24663;SDS011;12791;50.992;13.788;2023-05-07T09:57:58;8.15;;;6.90;;
24663;SDS011;12791;50.992;13.788;2023-05-07T10:00:27;8.00;;;7.30;;
24663;SDS011;12791;50.992;13.788;2023-05-07T10:02:54;7.30;;;6.70;;
24663;SDS011;12791;50.992;13.788;2023-05-07T10:05:23;7.82;;;7.13;;
24663;SDS011;12791;50.992;13.788;2023-05-07T10:07:51;7.35;;;6.68;;
24663;SDS011;12791;50.992;13.788;2023-05-07T10:10:19;6.82;;;6.22;;
24663;SDS011;12791;50.992;13.788;2023-05-07T10:12:48;6.82;;;6.28;;
24663;SDS011;12791;50.992;13.788;2023-05-07T10:15:15;7.55;;;6.95;;
24663;SDS011;12791;50.992;13.788;2023-05-07T10:17:43;7.85;;;7.13;;
24663;SDS011;12791;50.992;13.788;2023-05-07T10:20:10;7.32;;;6.72;;
24663;SDS011;12791;50.992;13.788;2023-05-07T10:22:38;7.05;;;6.18;;
24663;SDS011;12791;50.992;13.788;2023-05-07T10:25:09;7.53;;;6.82;;
24663;SDS011;12791;50.992;13.788;2023-05-07T10:27:42;7.70;;;6.90;;
24663;SDS011;12791;50.992;13.788;2023-05-07T10:30:14;6.63;;;6.13;;
24663;SDS011;12791;50.992;13.788;2023-05-07T10:32:48;7.43;;;6.82;;
24663;SDS011;12791;50.992;13.788;2023-05-07T10:35:19;7.38;;;6.78;;
24663;SDS011;12791;50.992;13.788;2023-05-07T10:37:48;7.93;;;7.13;;
24663;SDS011;12791;50.992;13.788;2023-05-07T10:40:15;8.75;;;7.95;;
24663;SDS011;12791;50.992;13.788;2023-05-07T10:42:53;7.00;;;6.45;;
24663;SDS011;12791;50.992;13.788;2023-05-07T10:45:23;7.25;;;6.65;;
24663;SDS011;12791;50.992;13.788;2023-05-07T10:48:06;7.32;;;6.65;;
24663;SDS011;12791;50.992;13.788;2023-05-07T10:50:38;7.47;;;6.88;;
24663;SDS011;12791;50.992;13.788;2023-05-07T10:53:23;8.60;;;7.90;;
24663;SDS011;12791;50.992;13.788;2023-05-07T10:58:51;8.25;;;7.55;;
24663;SDS011;12791;50.992;13.788;2023-05-07T11:01:24;7.45;;;6.85;;
24663;SDS011;12791;50.992;13.788;2023-05-07T11:04:15;7.47;;;6.88;;
24663;SDS011;12791;50.992;13.788;2023-05-07T11:10:01;8.13;;;7.43;;
24663;SDS011;12791;50.992;13.788;2023-05-07T11:12:52;7.75;;;6.78;;
24663;SDS011;12791;50.992;13.788;2023-05-07T11:15:33;10.15;;;9.15;;
24663;SDS011;12791;50.992;13.788;2023-05-07T11:18:10;8.90;;;8.07;;
24663;SDS011;12791;50.992;13.788;2023-05-07T11:20:45;8.30;;;7.53;;
24663;SDS011;12791;50.992;13.788;2023-05-07T11:26:17;8.40;;;7.40;;
24663;SDS011;12791;50.992;13.788;2023-05-07T11:28:43;7.88;;;7.28;;
24663;SDS011;12791;50.992;13.788;2023-05-07T11:31:10;8.05;;;7.25;;
24663;SDS011;12791;50.992;13.788;2023-05-07T11:33:38;8.95;;;8.05;;
24663;SDS011;12791;50.992;13.788;2023-05-07T11:36:07;8.43;;;7.72;;
24663;SDS011;12791;50.992;13.788;2023-05-07T11:38:35;7.65;;;7.05;;
24663;SDS011;12791;50.992;13.788;2023-05-07T11:41:02;7.30;;;6.70;;
24663;SDS011;12791;50.992;13.788;2023-05-07T11:43:30;7.70;;;7.00;;
24663;SDS011;12791;50.992;13.788;2023-05-07T11:46:04;7.68;;;6.97;;
24663;SDS011;12791;50.992;13.788;2023-05-07T11:48:32;8.20;;;7.50;;
24663;SDS011;12791;50.992;13.788;2023-05-07T11:51:01;8.60;;;7.85;;
24663;SDS011;12791;50.992;13.788;2023-05-07T11:53:34;7.95;;;7.25;;
24663;SDS011;12791;50.992;13.788;2023-05-07T11:56:05;8.07;;;7.28;;
24663;SDS011;12791;50.992;13.788;2023-05-07T11:58:32;7.50;;;6.80;;
24663;SDS011;12791;50.992;13.788;2023-05-07T12:00:59;7.55;;;6.88;;
24663;SDS011;12791;50.992;13.788;2023-05-07T12:03:26;7.63;;;6.93;;
24663;SDS011;12791;50.992;13.788;2023-05-07T12:05:53;7.20;;;6.60;;
24663;SDS011;12791;50.992;13.788;2023-05-07T12:08:21;7.38;;;6.68;;
24663;SDS011;12791;50.992;13.788;2023-05-07T12:10:48;7.13;;;6.53;;
24663;SDS011;12791;50.992;13.788;2023-05-07T12:13:16;7.05;;;6.47;;
24663;SDS011;12791;50.992;13.788;2023-05-07T12:15:42;7.28;;;6.68;;
24663;SDS011;12791;50.992;13.788;2023-05-07T12:18:09;7.57;;;6.97;;
24663;SDS011;12791;50.992;13.788;2023-05-07T12:20:37;7.68;;;7.03;;
24663;SDS011;12791;50.992;13.788;2023-05-07T12:23:04;8.77;;;8.07;;
24663;SDS011;12791;50.992;13.788;2023-05-07T12:25:33;9.98;;;8.35;;
24663;SDS011;12791;50.992;13.788;2023-05-07T12:28:01;8.80;;;8.00;;
24663;SDS011;12791;50.992;13.788;2023-05-07T12:30:29;9.52;;;8.52;;
24663;SDS011;12791;50.992;13.788;2023-05-07T12:32:56;8.98;;;8.18;;
24663;SDS011;12791;50.992;13.788;2023-05-07T12:35:26;10.05;;;9.15;;
24663;SDS011;12791;50.992;13.788;2023-05-07T12:37:56;9.38;;;8.48;;
24663;SDS011;12791;50.992;13.788;2023-05-07T12:40:29;9.10;;;8.30;;
24663;SDS011;12791;50.992;13.788;2023-05-07T12:43:03;9.23;;;8.25;;
24663;SDS011;12791;50.992;13.788;2023-05-07T12:45:29;8.43;;;7.72;;
24663;SDS011;12791;50.992;13.788;2023-05-07T12:47:56;8.48;;;7.63;;
24663;SDS011;12791;50.992;13.788;2023-05-07T12:50:30;8.35;;;7.65;;
24663;SDS011;12791;50.992;13.788;2023-05-07T12:52:58;7.88;;;7.18;;
24663;SDS011;12791;50.992;13.788;2023-05-07T12:55:25;8.48;;;7.68;;
24663;SDS011;12791;50.992;13.788;2023-05-07T12:57:53;8.00;;;7.40;;
24663;SDS011;12791;50.992;13.788;2023-05-07T13:00:32;9.43;;;7.35;;
24663;SDS011;12791;50.992;13.788;2023-05-07T13:02:59;9.07;;;8.15;;
24663;SDS011;12791;50.992;13.788;2023-05-07T13:05:26;8.27;;;7.57;;
24663;SDS011;12791;50.992;13.788;2023-05-07T13:07:53;8.43;;;7.72;;
24663;SDS011;12791;50.992;13.788;2023-05-07T13:10:19;8.70;;;7.90;;
24663;SDS011;12791;50.992;13.788;2023-05-07T13:12:47;8.88;;;7.95;;
24663;SDS011;12791;50.992;13.788;2023-05-07T13:15:15;7.57;;;6.90;;
24663;SDS011;12791;50.992;13.788;2023-05-07T13:17:42;8.30;;;7.57;;
24663;SDS011;12791;50.992;13.788;2023-05-07T13:20:09;8.40;;;7.70;;
24663;SDS011;12791;50.992;13.788;2023-05-07T13:22:36;8.55;;;7.85;;
24663;SDS011;12791;50.992;13.788;2023-05-07T13:25:03;7.55;;;6.85;;
24663;SDS011;12791;50.992;13.788;2023-05-07T13:27:30;8.07;;;7.35;;
24663;SDS011;12791;50.992;13.788;2023-05-07T13:29:56;6.90;;;6.40;;
24663;SDS011;12791;50.992;13.788;2023-05-07T13:32:24;7.72;;;7.10;;
24663;SDS011;12791;50.992;13.788;2023-05-07T13:34:51;7.03;;;6.53;;
24663;SDS011;12791;50.992;13.788;2023-05-07T13:37:18;8.10;;;7.40;;
24663;SDS011;12791;50.992;13.788;2023-05-07T13:39:45;7.88;;;7.18;;
24663;SDS011;12791;50.992;13.788;2023-05-07T13:42:11;7.53;;;6.82;;
24663;SDS011;12791;50.992;13.788;2023-05-07T13:44:38;7.60;;;7.00;;
24663;SDS011;12791;50.992;13.788;2023-05-07T13:47:05;6.85;;;6.35;;
24663;SDS011;12791;50.992;13.788;2023-05-07T13:49:33;8.23;;;7.53;;
24663;SDS011;12791;50.992;13.788;2023-05-07T13:52:00;7.80;;;7.10;;
24663;SDS011;12791;50.992;13.788;2023-05-07T13:54:26;7.10;;;6.50;;
24663;SDS011;12791;50.992;13.788;2023-05-07T13:56:53;7.00;;;6.40;;
24663;SDS011;12791;50.992;13.788;2023-05-07T13:59:19;6.57;;;5.97;;
24663;SDS011;12791;50.992;13.788;2023-05-07T14:01:46;6.55;;;6.07;;
24663;SDS011;12791;50.992;13.788;2023-05-07T14:04:13;6.85;;;6.25;;
24663;SDS011;12791;50.992;13.788;2023-05-07T14:06:41;5.82;;;5.43;;
24663;SDS011;12791;50.992;13.788;2023-05-07T14:09:07;6.05;;;5.55;;
24663;SDS011;12791;50.992;13.788;2023-05-07T14:11:37;6.70;;;6.20;;
24663;SDS011;12791;50.992;13.788;2023-05-07T14:14:03;6.03;;;5.63;;
24663;SDS011;12791;50.992;13.788;2023-05-07T14:16:30;6.28;;;5.78;;
24663;SDS011;12791;50.992;13.788;2023-05-07T14:18:56;6.10;;;5.70;;
24663;SDS011;12791;50.992;13.788;2023-05-07T14:21:23;5.40;;;4.90;;
24663;SDS011;12791;50.992;13.788;2023-05-07T14:23:51;5.25;;;4.85;;
24663;SDS011;12791;50.992;13.788;2023-05-07T14:26:18;4.80;;;4.38;;
24663;SDS011;12791;50.992;13.788;2023-05-07T14:28:45;6.55;;;4.80;;
24663;SDS011;12791;50.992;13.788;2023-05-07T14:31:12;4.47;;;4.13;;
24663;SDS011;12791;50.992;13.788;2023-05-07T14:33:39;5.53;;;4.30;;